Hyder, Alaska
Current Conditions -  °F | °C
As of 2:32 AM on Saturday 20 Dec 2014 (Local Time) from PAKT Reporting Station
Light Rain Light Rain  
Wind Chill: 36°   Ceiling: 3400
Heat Index: 44°   Visibility: 10mi
Dew Point: 38°   Wind: 21mph
Humidity: 79%   Direction: 150°SSE
Pressure: 29.09"   Gusts: 30mph
Location:  55.92°N, 130.04°W
Report Text: PAKT 201132Z AUTO 15018G26KT 10SM -RA OVC034 07/03 A2909 RMK AO2 PK WND 14028/1107 P0000 T00670033 TSNO
Loading
Personal Weather Stations






























Interactive Weather Map New forecast layout! Learn more

10-Day Weather Forecast

Advertisements
Track Severe Weather on mobile